Time;durP1;ratioP1;P1;durP2;ratioP2;P2;SDS_P1;SDS_P2;PMS_P1;PMS_P2;Temp;Humidity;BMP_temperature;BMP_pressure;BME280_temperature;BME280_humidity;BME280_pressure;Samples;Min_cycle;Max_cycle;Signal;HPM_P1;HPM_P2
2021/05/14 00:00:55;;;;;;;;;;;;;;;11.61;100.00;98496.97;1693906;84;20186;-71
2021/05/14 00:03:22;;;;;;;;;;;;;;;11.60;100.00;98487.32;1694167;84;20171;-71
2021/05/14 00:05:50;;;;;;;;;;;;;;;11.59;100.00;98496.48;1693926;84;20166;-72
2021/05/14 00:08:17;;;;;;;;;;;;;;;11.61;100.00;98493.49;1694125;84;20182;-71
2021/05/14 00:10:44;;;;;;;;;;;;;;;11.59;100.00;98495.94;1693949;84;21092;-71
2021/05/14 00:13:11;;;;;;;;;;;;;;;11.59;100.00;98503.20;1693927;84;20167;-71
2021/05/14 00:15:39;;;;;;;;;;;;;;;11.56;100.00;98499.72;1694008;84;20219;-71
2021/05/14 00:18:07;;;;;;;;;;;;;;;11.55;100.00;98496.78;1693901;84;20162;-71
2021/05/14 00:20:33;;;;;;;;;;;;;;;11.55;100.00;98498.13;1694036;84;20241;-72
2021/05/14 00:23:00;;;;;;;;;;;;;;;11.56;100.00;98497.86;1693891;84;21083;-71
2021/05/14 00:25:26;;;;;;;;;;;;;;;11.54;100.00;98487.93;1693974;84;20142;-71
2021/05/14 00:27:53;;;;;;;;;;;;;;;11.52;100.00;98487.41;1693965;84;20163;-71
2021/05/14 00:30:21;;;;;;;;;;;;;;;11.52;100.00;98491.99;1693994;84;20590;-73
2021/05/14 00:32:47;;;;;;;;;;;;;;;11.49;100.00;98485.82;1694073;84;20182;-71
2021/05/14 00:35:14;;;;;;;;;;;;;;;11.47;100.00;98479.95;1693938;84;21174;-71
2021/05/14 00:37:40;;;;;;;;;;;;;;;11.43;100.00;98485.63;1693996;84;20142;-72
2021/05/14 00:40:07;;;;;;;;;;;;;;;11.42;100.00;98485.39;1694031;84;20208;-73
2021/05/14 00:42:34;;;;;;;;;;;;;;;11.40;100.00;98480.29;1693907;84;20262;-71
2021/05/14 00:45:02;;;;;;;;;;;;;;;11.39;100.00;98478.67;1694048;84;20214;-72
2021/05/14 00:47:28;;;;;;;;;;;;;;;11.36;100.00;98480.05;1694023;84;21086;-71
2021/05/14 00:49:55;;;;;;;;;;;;;;;11.36;100.00;98479.25;1693868;84;20179;-71
2021/05/14 00:52:22;;;;;;;;;;;;;;;11.35;100.00;98480.34;1693975;84;20182;-72
2021/05/14 00:54:49;;;;;;;;;;;;;;;11.29;100.00;98475.58;1693988;84;20130;-72
2021/05/14 00:57:16;;;;;;;;;;;;;;;11.29;100.00;98476.92;1694080;84;20183;-73
2021/05/14 00:59:47;;;;;;;;;;;;;;;11.26;100.00;98480.70;1694033;84;21046;-72
2021/05/14 01:02:14;;;;;;;;;;;;;;;11.27;100.00;98477.73;1694106;84;20544;-72
2021/05/14 01:04:42;;;;;;;;;;;;;;;11.24;100.00;98478.84;1666364;84;20698;-72
2021/05/14 01:07:10;;;;;;;;;;;;;;;11.24;100.00;98480.97;1694011;84;20167;-71
2021/05/14 01:09:41;;;;;;;;;;;;;;;11.22;100.00;98472.94;1693967;84;20552;-72
2021/05/14 01:12:10;;;;;;;;;;;;;;;11.22;100.00;98471.60;1666413;84;21084;-72
2021/05/14 01:14:36;;;;;;;;;;;;;;;11.22;100.00;98466.23;1693812;84;20166;-71
2021/05/14 01:17:03;;;;;;;;;;;;;;;11.20;100.00;98470.56;1694060;84;20146;-71
2021/05/14 01:19:30;;;;;;;;;;;;;;;11.18;100.00;98471.38;1693801;84;20589;-72
2021/05/14 01:21:57;;;;;;;;;;;;;;;11.14;100.00;98463.08;1694017;84;20143;-72
2021/05/14 01:24:23;;;;;;;;;;;;;;;11.16;100.00;98467.63;1693871;84;21072;-71
2021/05/14 01:26:50;;;;;;;;;;;;;;;11.16;100.00;98464.94;1693926;84;20147;-72
2021/05/14 01:29:17;;;;;;;;;;;;;;;11.12;100.00;98449.16;1694014;84;20175;-74
2021/05/14 01:31:44;;;;;;;;;;;;;;;11.13;100.00;98456.11;1693872;84;20186;-72
2021/05/14 01:34:10;;;;;;;;;;;;;;;11.13;100.00;98451.29;1694139;84;20179;-72
2021/05/14 01:36:39;;;;;;;;;;;;;;;11.10;100.00;98450.52;1693974;84;21475;-72
2021/05/14 01:39:10;;;;;;;;;;;;;;;11.08;100.00;98437.37;1693794;84;20186;-72
2021/05/14 01:41:39;;;;;;;;;;;;;;;11.08;100.00;98445.97;1693901;84;20218;-70
2021/05/14 01:44:06;;;;;;;;;;;;;;;11.06;100.00;98441.42;1693847;84;20214;-70
2021/05/14 01:46:33;;;;;;;;;;;;;;;11.03;100.00;98444.69;1694202;84;20498;-71
2021/05/14 01:49:00;;;;;;;;;;;;;;;10.98;100.00;98443.39;1693877;84;21177;-70
2021/05/14 01:51:26;;;;;;;;;;;;;;;10.95;100.00;98440.73;1693802;84;20588;-70
2021/05/14 01:53:53;;;;;;;;;;;;;;;10.94;100.00;98444.48;1693950;84;20226;-71
2021/05/14 01:56:20;;;;;;;;;;;;;;;10.88;100.00;98449.66;1693964;84;20171;-71
2021/05/14 01:58:47;;;;;;;;;;;;;;;10.83;100.00;98444.34;1693820;84;20174;-71
2021/05/14 02:01:14;;;;;;;;;;;;;;;10.76;100.00;98446.00;1693982;84;21072;-70
2021/05/14 02:03:41;;;;;;;;;;;;;;;10.69;100.00;98450.89;1693820;84;20142;-71
2021/05/14 02:06:07;;;;;;;;;;;;;;;10.61;100.00;98447.47;1693966;84;20162;-70
2021/05/14 02:08:35;;;;;;;;;;;;;;;10.56;100.00;98452.34;1694049;84;20167;-71
2021/05/14 02:11:03;;;;;;;;;;;;;;;10.51;100.00;98442.98;1694010;84;20178;-71
2021/05/14 02:13:31;;;;;;;;;;;;;;;10.52;100.00;98451.28;1693949;84;21106;-71
2021/05/14 02:15:57;;;;;;;;;;;;;;;10.51;100.00;98455.86;1693772;84;20151;-70
2021/05/14 02:18:24;;;;;;;;;;;;;;;10.55;100.00;98456.63;1693876;84;20254;-70
2021/05/14 02:20:53;;;;;;;;;;;;;;;10.55;100.00;98445.35;1693930;84;20194;-70
2021/05/14 02:23:20;;;;;;;;;;;;;;;10.56;100.00;98454.19;1693772;84;20560;-70
2021/05/14 02:25:46;;;;;;;;;;;;;;;10.56;100.00;98449.66;1693740;84;21134;-70
2021/05/14 02:28:14;;;;;;;;;;;;;;;10.57;100.00;98453.13;1693976;84;20246;-70
2021/05/14 02:30:41;;;;;;;;;;;;;;;10.57;100.00;98450.45;1694045;84;20541;-70
2021/05/14 02:33:07;;;;;;;;;;;;;;;10.57;100.00;98451.79;1693886;84;20170;-71
2021/05/14 02:35:35;;;;;;;;;;;;;;;10.57;100.00;98447.77;1694050;84;20241;-70
2021/05/14 02:38:01;;;;;;;;;;;;;;;10.56;100.00;98452.85;1694115;84;21707;-72
2021/05/14 02:40:28;;;;;;;;;;;;;;;10.50;100.00;98444.84;1693848;84;20147;-71
2021/05/14 02:42:55;;;;;;;;;;;;;;;10.47;100.00;98448.64;1693890;84;20218;-71
2021/05/14 02:45:22;;;;;;;;;;;;;;;10.44;100.00;98441.95;1693905;84;20139;-71
2021/05/14 02:47:48;;;;;;;;;;;;;;;10.42;100.00;98437.95;1693931;84;20143;-70
2021/05/14 02:50:15;;;;;;;;;;;;;;;10.42;100.00;98450.02;1693779;84;21549;-70
2021/05/14 02:52:42;;;;;;;;;;;;;;;10.40;100.00;98442.79;1693869;84;20143;-70
2021/05/14 02:55:11;;;;;;;;;;;;;;;10.42;100.00;98448.14;1693706;84;20150;-70
2021/05/14 02:57:38;;;;;;;;;;;;;;;10.46;100.00;98441.66;1693983;84;20330;-70
2021/05/14 03:00:06;;;;;;;;;;;;;;;10.50;100.00;98438.69;1694044;84;20194;-70
2021/05/14 03:02:32;;;;;;;;;;;;;;;10.60;100.00;98443.17;1694149;84;21094;-71
2021/05/14 03:04:58;;;;;;;;;;;;;;;10.69;100.00;98440.95;1693982;84;20179;-71
2021/05/14 03:07:25;;;;;;;;;;;;;;;10.79;100.00;98438.72;1693698;84;20138;-71
2021/05/14 03:09:52;;;;;;;;;;;;;;;10.89;100.00;98441.30;1693927;84;20533;-71
2021/05/14 03:12:18;;;;;;;;;;;;;;;11.03;100.00;98445.48;1693945;84;20540;-71
2021/05/14 03:14:45;;;;;;;;;;;;;;;11.15;100.00;98443.75;1693988;84;21659;-71
2021/05/14 03:17:11;;;;;;;;;;;;;;;11.25;100.00;98438.82;1693664;84;20163;-71
2021/05/14 03:19:38;;;;;;;;;;;;;;;11.31;100.00;98441.14;1693855;84;20146;-72
2021/05/14 03:22:05;;;;;;;;;;;;;;;11.41;100.00;98441.58;1693843;84;20627;-72
2021/05/14 03:24:32;;;;;;;;;;;;;;;11.51;100.00;98442.83;1693994;84;20520;-70
2021/05/14 03:26:59;;;;;;;;;;;;;;;11.65;100.00;98450.97;1693802;84;21109;-71
2021/05/14 03:29:25;;;;;;;;;;;;;;;11.74;100.00;98444.43;1693840;84;20175;-71
2021/05/14 03:31:52;;;;;;;;;;;;;;;11.81;100.00;98452.95;1693848;84;20166;-71
2021/05/14 03:34:18;;;;;;;;;;;;;;;11.93;100.00;98453.87;1693944;84;20226;-71
2021/05/14 03:36:45;;;;;;;;;;;;;;;12.04;100.00;98454.01;1693846;84;20178;-71
2021/05/14 03:39:14;;;;;;;;;;;;;;;11.98;100.00;98451.14;1693874;84;21113;-71
2021/05/14 03:41:52;;;;;;;;;;;;;;;12.03;100.00;98457.80;1693859;84;20166;-70
2021/05/14 03:44:17;;;;;;;;;;;;;;;12.05;100.00;98453.45;1693695;84;20170;-70
2021/05/14 03:46:43;;;;;;;;;;;;;;;11.99;100.00;98442.77;1693924;84;20171;-70
2021/05/14 03:49:10;;;;;;;;;;;;;;;12.00;100.00;98450.28;1693782;84;20174;-71
2021/05/14 03:51:39;;;;;;;;;;;;;;;12.01;100.00;98447.31;1693911;84;21097;-71
2021/05/14 03:54:06;;;;;;;;;;;;;;;12.04;100.00;98443.80;1665800;84;20143;-71
2021/05/14 03:56:33;;;;;;;;;;;;;;;12.06;100.00;98451.83;1693972;84;20492;-72
2021/05/14 03:59:00;;;;;;;;;;;;;;;12.13;100.00;98448.23;1694098;84;20584;-72
2021/05/14 04:01:28;;;;;;;;;;;;;;;12.10;100.00;98454.20;1694046;84;20234;-71
2021/05/14 04:03:54;;;;;;;;;;;;;;;12.15;100.00;98450.09;1694068;84;21110;-70
2021/05/14 04:06:21;;;;;;;;;;;;;;;12.18;100.00;98452.75;1693864;84;20169;-72
2021/05/14 04:08:49;;;;;;;;;;;;;;;12.14;100.00;98445.00;1693779;83;20159;-71
2021/05/14 04:16:30;;;;;;;;;;;;;;;12.02;100.00;98453.48;1691935;84;21116;-71
2021/05/14 04:18:57;;;;;;;;;;;;;;;11.99;100.00;98453.53;1693331;84;20586;-70
2021/05/14 04:21:23;;;;;;;;;;;;;;;12.16;100.00;98453.03;1693612;84;20186;-71
2021/05/14 04:23:50;;;;;;;;;;;;;;;12.39;100.00;98453.23;1695271;84;20174;-72
2021/05/14 04:26:17;;;;;;;;;;;;;;;12.59;100.00;98457.50;1696641;84;20146;-72
2021/05/14 04:28:44;;;;;;;;;;;;;;;12.84;100.00;98464.38;1696818;84;21115;-72
2021/05/14 04:31:11;;;;;;;;;;;;;;;13.07;100.00;98457.24;1670513;84;20682;-72
2021/05/14 04:33:38;;;;;;;;;;;;;;;13.26;100.00;98462.57;1696958;84;20142;-71
2021/05/14 04:36:05;;;;;;;;;;;;;;;13.47;100.00;98459.78;1696566;84;20170;-71
2021/05/14 04:38:32;;;;;;;;;;;;;;;13.59;100.00;98459.81;1696962;84;20190;-73
2021/05/14 04:40:58;;;;;;;;;;;;;;;13.54;100.00;98458.01;1696903;84;21115;-72
2021/05/14 04:43:25;;;;;;;;;;;;;;;13.51;100.00;98450.53;1696769;84;20206;-71
2021/05/14 04:45:51;;;;;;;;;;;;;;;13.64;100.00;98450.27;1696793;84;20186;-72
2021/05/14 04:48:18;;;;;;;;;;;;;;;13.75;100.00;98449.53;1696645;84;20150;-72
2021/05/14 04:50:45;;;;;;;;;;;;;;;13.64;100.00;98450.27;1696750;84;20186;-72
2021/05/14 04:53:13;;;;;;;;;;;;;;;13.59;100.00;98443.63;1696233;84;21111;-73
2021/05/14 04:55:40;;;;;;;;;;;;;;;13.86;100.00;98438.20;1696952;84;20532;-72
2021/05/14 04:58:06;;;;;;;;;;;;;;;14.06;100.00;98429.42;1695235;84;20147;-72
2021/05/14 05:00:33;;;;;;;;;;;;;;;14.04;100.00;98435.14;1693632;84;20131;-72
2021/05/14 05:03:01;;;;;;;;;;;;;;;14.04;100.00;98439.75;1693801;84;20166;-71
2021/05/14 05:05:29;;;;;;;;;;;;;;;14.12;99.98;98434.97;1692950;84;21112;-73
2021/05/14 05:07:56;;;;;;;;;;;;;;;14.20;97.65;98445.59;1693740;84;20146;-73
2021/05/14 05:10:24;;;;;;;;;;;;;;;14.42;96.94;98437.50;1693324;84;20146;-71
2021/05/14 05:12:50;;;;;;;;;;;;;;;14.51;93.36;98438.94;1693619;84;20163;-74
2021/05/14 05:15:17;;;;;;;;;;;;;;;14.60;93.87;98436.31;1692813;84;20159;-71
2021/05/14 05:17:44;;;;;;;;;;;;;;;14.67;89.78;98438.03;1693373;84;21522;-71
2021/05/14 05:20:12;;;;;;;;;;;;;;;14.90;91.01;98434.77;1693152;84;20623;-72
2021/05/14 05:22:39;;;;;;;;;;;;;;;15.14;91.09;98435.75;1691353;84;20282;-72
2021/05/14 05:25:07;;;;;;;;;;;;;;;15.27;88.49;98433.52;1691663;85;20186;-73
2021/05/14 05:27:33;;;;;;;;;;;;;;;15.28;85.71;98428.91;1692098;85;20250;-74
2021/05/14 05:30:00;;;;;;;;;;;;;;;15.55;84.52;98433.30;1691856;84;21991;-73
2021/05/14 05:32:27;;;;;;;;;;;;;;;15.64;80.97;98429.50;1692962;84;20568;-71
2021/05/14 05:34:56;;;;;;;;;;;;;;;15.95;78.89;98427.83;1693473;84;20634;-71
2021/05/14 05:37:27;;;;;;;;;;;;;;;16.25;76.50;98428.27;1692190;84;20826;-71
2021/05/14 05:39:55;;;;;;;;;;;;;;;16.35;75.70;98432.56;1691318;84;20574;-71
2021/05/14 05:42:25;;;;;;;;;;;;;;;16.33;72.56;98432.65;1664795;84;20721;-71
2021/05/14 05:44:52;;;;;;;;;;;;;;;16.45;68.34;98430.09;1693206;83;20603;-72
2021/05/14 05:47:18;;;;;;;;;;;;;;;16.37;66.92;98426.84;1693395;84;20536;-71
2021/05/14 05:49:45;;;;;;;;;;;;;;;16.50;67.72;98435.34;1693145;84;20591;-70
2021/05/14 05:52:12;;;;;;;;;;;;;;;16.66;68.63;98434.31;1693383;84;20202;-72
2021/05/14 05:54:39;;;;;;;;;;;;;;;16.55;74.87;98424.34;1693541;84;21173;-70
2021/05/14 05:57:05;;;;;;;;;;;;;;;16.49;74.12;98432.41;1693343;84;20238;-71
2021/05/14 05:59:35;;;;;;;;;;;;;;;16.83;71.14;98438.37;1693344;84;20603;-71
2021/05/14 06:02:02;;;;;;;;;;;;;;;16.99;62.09;98438.64;1693321;84;20150;-71
2021/05/14 06:04:28;;;;;;;;;;;;;;;16.83;59.14;98432.13;1693435;84;20572;-70
2021/05/14 06:06:55;;;;;;;;;;;;;;;16.81;60.12;98428.41;1692899;84;21845;-72
2021/05/14 06:09:22;;;;;;;;;;;;;;;16.81;59.33;98428.97;1685419;84;20202;-70
2021/05/14 06:11:48;;;;;;;;;;;;;;;16.94;56.37;98427.97;1684986;84;20170;-70
2021/05/14 06:14:15;;;;;;;;;;;;;;;17.05;58.11;98436.00;1689071;84;20261;-72
2021/05/14 06:16:42;;;;;;;;;;;;;;;17.24;56.83;98427.47;1693197;84;20213;-69
2021/05/14 06:19:18;;;;;;;;;;;;;;;17.45;58.50;98429.47;1693101;84;21129;-72
2021/05/14 06:21:48;;;;;;;;;;;;;;;17.59;56.51;98427.33;1664487;84;20166;-70
2021/05/14 06:24:16;;;;;;;;;;;;;;;17.91;53.65;98429.96;1693019;84;20587;-70
2021/05/14 06:26:45;;;;;;;;;;;;;;;17.99;53.30;98426.39;1693306;84;20190;-71
2021/05/14 06:29:12;;;;;;;;;;;;;;;18.04;49.43;98432.19;1693232;84;20174;-71
2021/05/14 06:31:45;;;;;;;;;;;;;;;18.43;50.08;98428.77;1693544;84;21123;-71
2021/05/14 06:34:14;;;;;;;;;;;;;;;18.40;43.24;98428.09;1693230;84;20190;-70
2021/05/14 06:36:41;;;;;;;;;;;;;;;18.77;43.40;98419.53;1693469;84;20166;-71
2021/05/14 06:39:07;;;;;;;;;;;;;;;18.83;43.83;98419.53;1693394;84;20206;-71
2021/05/14 06:41:34;;;;;;;;;;;;;;;19.12;46.05;98417.78;1693700;84;20200;-71
2021/05/14 06:44:02;;;;;;;;;;;;;;;18.63;46.17;98408.91;1693408;84;21131;-70
2021/05/14 06:46:33;;;;;;;;;;;;;;;18.51;46.10;98404.80;1693061;84;20158;-71
2021/05/14 06:48:59;;;;;;;;;;;;;;;18.70;45.46;98408.37;1715954;83;20171;-71
2021/05/14 06:51:26;;;;;;;;;;;;;;;18.49;46.69;98411.69;1690196;85;20150;-71
2021/05/14 06:53:54;;;;;;;;;;;;;;;18.32;47.07;98416.14;1692324;83;20187;-72
2021/05/14 06:56:20;;;;;;;;;;;;;;;18.51;49.19;98404.80;1690283;85;21149;-72
2021/05/14 06:58:47;;;;;;;;;;;;;;;18.80;47.49;98405.27;1719380;83;20168;-71
2021/05/14 07:01:14;;;;;;;;;;;;;;;19.27;47.15;98415.75;1690626;85;20146;-71
2021/05/14 07:03:40;;;;;;;;;;;;;;;19.51;45.30;98405.23;1720936;83;20208;-70
2021/05/14 07:06:07;;;;;;;;;;;;;;;19.55;44.92;98408.84;1690648;85;20142;-70
2021/05/14 07:08:34;;;;;;;;;;;;;;;19.40;45.37;98411.68;1720838;83;20566;-71
2021/05/14 07:11:00;;;;;;;;;;;;;;;19.29;46.55;98415.42;1690681;85;20174;-71
2021/05/14 07:13:27;;;;;;;;;;;;;;;19.21;46.20;98417.70;1720856;83;20160;-72
2021/05/14 07:15:54;;;;;;;;;;;;;;;18.90;45.88;98414.91;1690520;85;20170;-72
2021/05/14 07:18:23;;;;;;;;;;;;;;;18.47;45.97;98413.41;1720835;83;20152;-71
2021/05/14 07:20:50;;;;;;;;;;;;;;;18.61;46.98;98415.81;1690502;85;21179;-70
2021/05/14 07:23:16;;;;;;;;;;;;;;;18.88;47.35;98409.01;1720996;83;20141;-71
2021/05/14 07:25:43;;;;;;;;;;;;;;;18.98;45.64;98412.66;1690604;85;20156;-72
2021/05/14 07:28:10;;;;;;;;;;;;;;;19.46;44.79;98407.61;1720887;83;20183;-71
2021/05/14 07:30:36;;;;;;;;;;;;;;;19.41;42.17;98405.91;1690668;85;20162;-72
2021/05/14 07:33:03;;;;;;;;;;;;;;;19.55;42.93;98401.50;1720941;83;21029;-72
2021/05/14 07:35:30;;;;;;;;;;;;;;;20.04;41.90;98407.44;1690676;85;20169;-71
2021/05/14 07:37:58;;;;;;;;;;;;;;;20.30;39.21;98407.82;1721068;83;20565;-71
2021/05/14 07:40:25;;;;;;;;;;;;;;;20.17;39.88;98410.95;1690808;85;20181;-72
2021/05/14 07:42:54;;;;;;;;;;;;;;;19.94;41.05;98412.01;1721083;83;20164;-70
2021/05/14 07:45:20;;;;;;;;;;;;;;;19.98;41.00;98412.91;1690680;85;21174;-71
2021/05/14 07:47:47;;;;;;;;;;;;;;;19.79;44.96;98408.06;1720990;83;20235;-72
2021/05/14 07:50:15;;;;;;;;;;;;;;;20.08;45.21;98403.69;1690805;85;20170;-72
2021/05/14 07:52:42;;;;;;;;;;;;;;;20.12;44.23;98414.70;1711347;83;20606;-71
2021/05/14 07:55:11;;;;;;;;;;;;;;;20.38;45.45;98412.11;1693426;84;20174;-72
2021/05/14 07:57:44;;;;;;;;;;;;;;;20.42;46.02;98413.80;1689262;84;20202;-71
2021/05/14 08:00:16;;;;;;;;;;;;;;;20.62;45.09;98407.16;1693925;84;20217;-71
2021/05/14 08:02:43;;;;;;;;;;;;;;;20.77;44.08;98411.84;1693780;84;20560;-70
2021/05/14 08:05:10;;;;;;;;;;;;;;;20.76;44.20;98411.06;1694056;84;20230;-72
2021/05/14 08:07:36;;;;;;;;;;;;;;;20.45;45.03;98410.95;1694133;84;20190;-72
2021/05/14 08:10:05;;;;;;;;;;;;;;;20.06;44.91;98420.16;1694242;84;21112;-71
2021/05/14 08:12:31;;;;;;;;;;;;;;;20.06;45.58;98420.97;1693821;84;20154;-71
2021/05/14 08:15:01;;;;;;;;;;;;;;;20.00;46.21;98414.73;1694062;84;20181;-70
2021/05/14 08:17:28;;;;;;;;;;;;;;;20.53;46.08;98416.84;1694095;84;20171;-70
2021/05/14 08:19:54;;;;;;;;;;;;;;;21.01;45.68;98416.95;1666401;84;20178;-70
2021/05/14 08:22:21;;;;;;;;;;;;;;;21.32;44.27;98407.99;1694156;84;21111;-72
2021/05/14 08:24:47;;;;;;;;;;;;;;;21.03;45.30;98413.31;1694070;84;20134;-71
2021/05/14 08:27:14;;;;;;;;;;;;;;;20.89;43.99;98412.36;1694054;84;20556;-71
2021/05/14 08:29:43;;;;;;;;;;;;;;;21.02;43.85;98407.06;1693463;84;20182;-71
2021/05/14 08:32:10;;;;;;;;;;;;;;;21.23;43.41;98399.97;1693846;84;20218;-72
2021/05/14 08:34:43;;;;;;;;;;;;;;;21.32;41.19;98420.27;1694034;84;21097;-71
2021/05/14 08:37:09;;;;;;;;;;;;;;;21.23;41.50;98422.38;1693753;84;20170;-71
2021/05/14 08:39:36;;;;;;;;;;;;;;;21.31;40.81;98414.03;1694050;84;20166;-69
2021/05/14 08:42:06;;;;;;;;;;;;;;;21.48;40.56;98410.14;1693775;84;20158;-71
2021/05/14 08:44:32;;;;;;;;;;;;;;;21.76;42.71;98412.77;1693792;84;20552;-72
2021/05/14 08:46:59;;;;;;;;;;;;;;;21.33;40.41;98410.35;1693703;84;21660;-71
2021/05/14 08:49:26;;;;;;;;;;;;;;;20.63;42.24;98408.73;1693713;84;20297;-71
2021/05/14 08:51:53;;;;;;;;;;;;;;;20.43;41.98;98408.59;1693937;84;20175;-69
2021/05/14 08:54:20;;;;;;;;;;;;;;;20.63;43.64;98390.47;1693854;84;20146;-71
2021/05/14 08:56:46;;;;;;;;;;;;;;;20.61;45.14;98408.31;1693977;84;20552;-71
2021/05/14 08:59:13;;;;;;;;;;;;;;;20.85;44.90;98412.28;1694054;84;21636;-71
2021/05/14 09:01:40;;;;;;;;;;;;;;;21.09;43.07;98405.07;1693751;84;20142;-69
2021/05/14 09:04:07;;;;;;;;;;;;;;;21.44;42.56;98412.60;1694033;84;20170;-71
2021/05/14 09:06:38;;;;;;;;;;;;;;;21.67;43.74;98403.96;1693674;84;20203;-72
2021/05/14 09:09:08;;;;;;;;;;;;;;;21.75;41.81;98403.55;1693882;84;20210;-72
2021/05/14 09:11:47;;;;;;;;;;;;;;;21.90;40.89;98408.75;1693932;84;21096;-70
2021/05/14 09:14:44;;;;;;;;;;;;;;;21.87;42.59;98404.80;1693333;84;20568;-70
2021/05/14 09:17:14;;;;;;;;;;;;;;;21.45;42.52;98401.89;1666518;84;20162;-71
2021/05/14 09:19:42;;;;;;;;;;;;;;;21.26;43.35;98408.02;1694055;84;20377;-72
2021/05/14 09:22:15;;;;;;;;;;;;;;;21.32;43.83;98399.23;1693910;84;20182;-72
2021/05/14 09:24:45;;;;;;;;;;;;;;;21.09;42.98;98396.34;1693904;84;21100;-72
2021/05/14 09:27:18;;;;;;;;;;;;;;;21.08;41.28;98408.37;1693859;84;20555;-72
2021/05/14 09:29:48;;;;;;;;;;;;;;;20.94;41.32;98402.55;1720974;83;20191;-70
2021/05/14 09:32:27;;;;;;;;;;;;;;;20.66;38.86;98404.77;1690739;85;20170;-73
2021/05/14 09:34:56;;;;;;;;;;;;;;;20.59;38.84;98408.66;1721037;83;20128;-74
2021/05/14 09:37:24;;;;;;;;;;;;;;;20.43;40.53;98408.59;1690772;85;21115;-72
2021/05/14 09:40:11;;;;;;;;;;;;;;;20.51;41.24;98401.41;1720980;83;20148;-70
2021/05/14 09:42:39;;;;;;;;;;;;;;;20.60;40.12;98408.08;1685270;83;20492;-73
2021/05/14 09:45:18;;;;;;;;;;;;;;;20.47;40.49;98405.38;1720963;83;20199;-72
2021/05/14 09:47:57;;;;;;;;;;;;;;;20.48;39.75;98396.62;1685725;85;20572;-71
2021/05/14 09:50:32;;;;;;;;;;;;;;;20.45;39.70;98409.02;1716798;83;21016;-72
2021/05/14 09:53:10;;;;;;;;;;;;;;;20.44;40.94;98408.02;1690568;85;20186;-72
2021/05/14 09:55:39;;;;;;;;;;;;;;;20.41;40.55;98403.27;1718043;83;20184;-72
2021/05/14 09:58:13;;;;;;;;;;;;;;;20.23;40.16;98396.72;1690660;85;20158;-72
2021/05/14 10:00:40;;;;;;;;;;;;;;;20.17;42.06;98409.59;1720908;83;20542;-71
2021/05/14 10:03:09;;;;;;;;;;;;;;;20.20;41.00;98410.25;1690736;85;21492;-72
2021/05/14 10:05:37;;;;;;;;;;;;;;;20.12;40.68;98410.05;1721013;83;20183;-72
2021/05/14 10:08:05;;;;;;;;;;;;;;;20.16;38.06;98418.88;1690674;85;20148;-72
2021/05/14 10:10:35;;;;;;;;;;;;;;;20.30;37.93;98416.00;1716257;83;20136;-71
2021/05/14 10:13:03;;;;;;;;;;;;;;;20.22;35.87;98417.52;1690667;85;20155;-71
2021/05/14 10:15:31;;;;;;;;;;;;;;;20.01;35.89;98412.22;1721007;83;21630;-71
2021/05/14 10:17:58;;;;;;;;;;;;;;;20.10;35.58;98415.61;1690606;85;20158;-70
2021/05/14 10:20:27;;;;;;;;;;;;;;;19.95;37.07;98395.91;1721122;83;20223;-72
2021/05/14 10:22:56;;;;;;;;;;;;;;;19.86;37.20;98412.36;1690710;85;20174;-73
2021/05/14 10:25:48;;;;;;;;;;;;;;;19.86;36.24;98414.52;1720968;83;20172;-72
2021/05/14 10:28:24;;;;;;;;;;;;;;;19.74;30.96;98410.45;1657104;86;21170;-72
2021/05/14 10:31:09;;;;;;;;;;;;;;;19.68;31.38;98411.25;1657270;86;20181;-74
2021/05/14 10:33:47;;;;;;;;;;;;;;;19.76;31.28;98406.03;1657238;86;20205;-72
2021/05/14 10:36:32;;;;;;;;;;;;;;;19.81;29.60;98397.62;1657285;86;20152;-72
2021/05/14 10:39:09;;;;;;;;;;;;;;;19.85;30.16;98415.66;1657342;86;20193;-72
2021/05/14 10:41:53;;;;;;;;;;;;;;;19.81;30.20;98413.97;1657062;86;21092;-70
2021/05/14 10:44:42;;;;;;;;;;;;;;;19.83;29.62;98401.59;1657294;86;20594;-72
2021/05/14 10:47:33;;;;;;;;;;;;;;;19.68;30.64;98403.09;1657130;86;20172;-70
2021/05/14 10:50:03;;;;;;;;;;;;;;;19.46;32.18;98407.61;1673608;85;20176;-70
2021/05/14 10:52:32;;;;;;;;;;;;;;;19.38;31.33;98398.44;1695622;83;20534;-70
2021/05/14 10:54:57;;;;;;;;;;;;;;;19.27;31.09;98398.64;1694227;84;21049;-71
2021/05/14 10:57:47;;;;;;;;;;;;;;;19.37;32.16;98413.16;1693999;84;20153;-71
2021/05/14 11:00:30;;;;;;;;;;;;;;;19.60;32.81;98401.80;1693035;84;20251;-71
2021/05/14 11:03:12;;;;;;;;;;;;;;;19.73;31.66;98402.64;1694956;83;20279;-74
2021/05/14 11:05:45;;;;;;;;;;;;;;;19.61;30.87;98410.22;1725947;82;20227;-71
2021/05/14 11:08:32;;;;;;;;;;;;;;;19.49;28.51;98396.83;1727330;82;21518;-71
2021/05/14 11:11:06;;;;;;;;;;;;;;;19.30;28.70;98406.12;1726634;82;20220;-73
2021/05/14 11:13:51;;;;;;;;;;;;;;;19.43;29.13;98402.86;1726775;83;20560;-72
2021/05/14 11:16:34;;;;;;;;;;;;;;;19.46;28.79;98408.97;1699156;83;20599;-72
2021/05/14 11:19:24;;;;;;;;;;;;;;;19.34;28.71;98399.45;1727126;83;20553;-72
2021/05/14 11:22:01;;;;;;;;;;;;;;;19.20;29.99;98402.48;1726471;83;21109;-72
2021/05/14 11:24:30;;;;;;;;;;;;;;;19.21;30.45;98412.26;1726820;83;20293;-71
2021/05/14 11:26:59;;;;;;;;;;;;;;;19.46;31.43;98407.05;1721994;83;20217;-71
2021/05/14 11:29:33;;;;;;;;;;;;;;;19.40;31.06;98406.23;1696392;84;20194;-72
2021/05/14 11:32:14;;;;;;;;;;;;;;;19.38;30.20;98405.23;1683625;85;20772;-72
2021/05/14 11:35:02;;;;;;;;;;;;;;;19.34;29.26;98407.04;1679977;85;21045;-70
2021/05/14 11:37:34;;;;;;;;;;;;;;;19.49;28.40;98401.48;1673351;85;20227;-71
2021/05/14 11:40:09;;;;;;;;;;;;;;;19.46;28.03;98407.61;1671221;85;20608;-73
2021/05/14 11:42:42;;;;;;;;;;;;;;;19.41;28.00;98401.04;1682202;84;20254;-71
2021/05/14 11:45:31;;;;;;;;;;;;;;;19.43;28.91;98405.58;1668350;85;20185;-73
2021/05/14 11:48:01;;;;;;;;;;;;;;;19.33;29.82;98398.66;1694032;84;21809;-73
2021/05/14 11:50:31;;;;;;;;;;;;;;;19.30;30.94;98408.84;1703422;84;20181;-73
2021/05/14 11:52:59;;;;;;;;;;;;;;;19.22;32.35;98400.23;1705734;83;20302;-73
2021/05/14 11:55:26;;;;;;;;;;;;;;;19.14;32.73;98403.86;1711992;83;20542;-73
2021/05/14 11:57:54;;;;;;;;;;;;;;;19.01;33.77;98405.74;1709982;83;20180;-72
2021/05/14 12:00:36;;;;;;;;;;;;;;;18.90;34.97;98397.81;1713053;83;21113;-72
2021/05/14 12:03:06;;;;;;;;;;;;;;;18.84;36.13;98403.47;1695433;83;20560;-73
2021/05/14 12:05:34;;;;;;;;;;;;;;;18.79;37.14;98399.61;1716219;83;20233;-74
2021/05/14 12:08:11;;;;;;;;;;;;;;;18.71;38.13;98407.23;1711374;83;20183;-70
2021/05/14 12:10:57;;;;;;;;;;;;;;;18.54;40.47;98405.48;1715829;83;20292;-70
2021/05/14 12:13:25;;;;;;;;;;;;;;;18.49;42.52;98404.33;1715834;83;21104;-71
2021/05/14 12:16:03;;;;;;;;;;;;;;;18.38;43.35;98397.17;1715912;83;20176;-72
2021/05/14 12:18:32;;;;;;;;;;;;;;;18.34;43.54;98400.31;1714566;83;20780;-72
2021/05/14 12:21:00;;;;;;;;;;;;;;;18.28;43.59;98392.15;1706532;83;20228;-72
2021/05/14 12:23:27;;;;;;;;;;;;;;;18.23;43.83;98392.89;1715219;83;20252;-72
2021/05/14 12:26:00;;;;;;;;;;;;;;;18.23;43.91;98386.11;1715684;83;21893;-71
2021/05/14 12:28:32;;;;;;;;;;;;;;;18.29;44.44;98388.30;1716418;83;20224;-71
2021/05/14 12:31:07;;;;;;;;;;;;;;;18.36;43.69;98385.84;1716703;83;20132;-71
2021/05/14 12:33:36;;;;;;;;;;;;;;;18.40;43.75;98388.13;1716584;83;20172;-70
2021/05/14 12:36:06;;;;;;;;;;;;;;;18.57;43.67;98382.28;1713076;83;20307;-71
2021/05/14 12:38:47;;;;;;;;;;;;;;;18.77;43.60;98384.77;1708951;83;21106;-70
2021/05/14 12:41:25;;;;;;;;;;;;;;;18.78;43.61;98384.98;1716218;83;20204;-71
2021/05/14 12:44:12;;;;;;;;;;;;;;;18.78;43.65;98372.75;1716327;83;20172;-72
2021/05/14 12:47:05;;;;;;;;;;;;;;;18.84;43.25;98378.21;1715189;83;20192;-72
2021/05/14 12:49:46;;;;;;;;;;;;;;;18.99;43.27;98376.77;1716025;83;20227;-73
2021/05/14 12:52:27;;;;;;;;;;;;;;;19.21;42.84;98373.61;1716222;83;21090;-72
2021/05/14 12:55:05;;;;;;;;;;;;;;;19.50;43.44;98371.80;1715389;83;20164;-72
2021/05/14 12:57:40;;;;;;;;;;;;;;;19.44;43.45;98365.77;1715794;83;20160;-73
2021/05/14 13:00:14;;;;;;;;;;;;;;;19.63;44.67;98355.66;1709299;83;20244;-72